createdAt,value
2018-04-14T00:01:12.919Z,66.13
2018-04-14T00:03:39.582Z,64.40
2018-04-14T00:06:06.273Z,72.87
2018-04-14T00:08:33.241Z,69.03
2018-04-14T00:10:59.977Z,66.50
2018-04-14T00:13:26.925Z,69.23
2018-04-14T00:15:54.788Z,67.53
2018-04-14T00:18:21.531Z,68.93
2018-04-14T00:20:48.374Z,66.17
2018-04-14T00:23:15.217Z,70.00
2018-04-14T00:25:42.058Z,68.07
2018-04-14T00:28:08.900Z,72.03
2018-04-14T00:30:35.557Z,64.60
2018-04-14T00:33:02.306Z,61.30
2018-04-14T00:35:29.120Z,71.40
2018-04-14T00:37:55.868Z,60.43
2018-04-14T00:40:22.700Z,67.27
2018-04-14T00:42:49.547Z,67.57
2018-04-14T00:45:16.480Z,60.13
2018-04-14T00:47:43.229Z,72.10
2018-04-14T00:50:09.969Z,67.60
2018-04-14T00:52:36.678Z,63.23
2018-04-14T00:55:03.582Z,65.30
2018-04-14T00:57:30.394Z,66.97
2018-04-14T00:59:57.235Z,63.23
2018-04-14T01:02:24.073Z,63.67
2018-04-14T01:04:50.754Z,67.17
2018-04-14T01:07:17.580Z,62.23
2018-04-14T01:09:44.404Z,67.17
2018-04-14T01:12:11.238Z,65.23
2018-04-14T01:14:38.079Z,66.40
2018-04-14T01:17:04.820Z,61.30
2018-04-14T01:19:31.573Z,60.47
2018-04-14T01:21:58.406Z,60.83
2018-04-14T01:24:25.245Z,70.93
2018-04-14T01:26:51.905Z,69.43
2018-04-14T01:29:18.728Z,66.03
2018-04-14T01:31:45.677Z,65.97
2018-04-14T01:34:12.411Z,65.83
2018-04-14T01:36:39.474Z,64.80
2018-04-14T01:39:06.304Z,62.87
2018-04-14T01:41:32.993Z,65.03
2018-04-14T01:43:59.849Z,66.03
2018-04-14T01:46:26.622Z,61.93
2018-04-14T01:48:53.463Z,64.57
2018-04-14T01:51:20.412Z,67.43
2018-04-14T01:53:47.047Z,64.70
2018-04-14T01:56:13.789Z,62.70
2018-04-14T01:58:41.553Z,65.63
2018-04-14T02:01:08.454Z,63.30
2018-04-14T02:03:36.057Z,76.63
2018-04-14T02:06:03.001Z,63.43
2018-04-14T02:08:29.842Z,64.33
2018-04-14T02:10:56.687Z,65.63
2018-04-14T02:13:23.421Z,66.33
2018-04-14T02:15:50.268Z,69.67
2018-04-14T02:18:17.213Z,63.30
2018-04-14T02:20:44.158Z,70.33
2018-04-14T02:23:11.598Z,68.07
2018-04-14T02:25:38.455Z,68.07
2018-04-14T02:28:05.294Z,61.90
2018-04-14T02:30:31.961Z,62.73
2018-04-14T02:32:58.663Z,68.00
2018-04-14T02:35:25.523Z,58.10
2018-04-14T02:37:52.259Z,62.77
2018-04-14T02:40:19.099Z,63.70
2018-04-14T02:42:45.766Z,74.13
2018-04-14T02:45:12.695Z,65.60
2018-04-14T02:47:39.523Z,68.80
2018-04-14T02:50:06.268Z,63.63
2018-04-14T02:52:33.004Z,68.67
2018-04-14T02:54:59.949Z,67.07
2018-04-14T02:57:26.686Z,69.67
2018-04-14T02:59:53.431Z,67.87
2018-04-14T03:02:20.370Z,70.33
2018-04-14T03:04:47.114Z,70.37
2018-04-14T03:07:13.960Z,69.80
2018-04-14T03:09:40.696Z,68.50
2018-04-14T03:12:07.382Z,78.00
2018-04-14T03:14:34.056Z,68.43
2018-04-14T03:17:00.814Z,65.67
2018-04-14T03:19:27.759Z,72.70
2018-04-14T03:21:54.600Z,74.87
2018-04-14T03:24:21.442Z,64.43
2018-04-14T03:26:48.083Z,69.70
2018-04-14T03:29:15.026Z,65.70
2018-04-14T03:31:41.761Z,70.73
2018-04-14T03:34:08.430Z,66.67
2018-04-14T03:36:35.245Z,64.30
2018-04-14T03:39:02.190Z,69.57
2018-04-14T03:41:28.932Z,67.43
2018-04-14T03:43:55.590Z,65.47
2018-04-14T03:46:22.510Z,69.20
2018-04-14T03:48:49.455Z,65.13
2018-04-14T03:51:16.604Z,72.87
2018-04-14T03:53:43.346Z,64.27
2018-04-14T03:56:10.189Z,70.17
2018-04-14T03:58:37.131Z,66.53
2018-04-14T04:01:03.794Z,69.73
2018-04-14T04:03:30.612Z,63.93
2018-04-14T04:05:57.351Z,65.67
2018-04-14T04:08:24.297Z,68.37
2018-04-14T04:10:51.036Z,69.20
2018-04-14T04:13:17.874Z,72.50
2018-04-14T04:15:44.582Z,67.23
2018-04-14T04:18:11.329Z,71.73
2018-04-14T04:21:02.162Z,67.03
2018-04-14T04:23:41.284Z,69.40
2018-04-14T04:26:08.650Z,70.47
2018-04-14T04:28:36.002Z,67.80
2018-04-14T04:31:02.843Z,70.47
2018-04-14T04:33:29.481Z,74.53
2018-04-14T04:35:56.221Z,73.87
2018-04-14T04:38:22.854Z,75.53
2018-04-14T04:40:49.600Z,76.73
2018-04-14T04:43:16.236Z,77.57
2018-04-14T04:45:42.976Z,77.60
2018-04-14T04:48:09.613Z,77.10
2018-04-14T04:50:36.154Z,75.33
2018-04-14T04:53:02.787Z,71.00
2018-04-14T04:55:29.395Z,71.13
2018-04-14T04:57:56.102Z,68.40
2018-04-14T05:00:22.801Z,67.47
2018-04-14T05:02:49.440Z,68.87
2018-04-14T05:05:16.030Z,67.97
2018-04-14T05:07:42.815Z,67.93
2018-04-14T05:10:09.966Z,66.73
2018-04-14T05:12:36.514Z,68.67
2018-04-14T05:15:03.138Z,71.50
2018-04-14T05:17:29.775Z,72.23
2018-04-14T05:19:56.413Z,64.93
2018-04-14T05:22:22.986Z,71.50
2018-04-14T05:24:49.688Z,68.50
2018-04-14T05:27:16.321Z,67.77
2018-04-14T05:29:42.959Z,68.30
2018-04-14T05:32:09.518Z,63.47
2018-04-14T05:34:36.462Z,64.77
2018-04-14T05:37:02.997Z,65.40
2018-04-14T05:39:29.615Z,65.37
2018-04-14T05:41:56.248Z,68.27
2018-04-14T05:44:22.885Z,70.63
2018-04-14T05:46:49.631Z,71.27
2018-04-14T05:49:16.370Z,66.60
2018-04-14T05:51:43.109Z,65.57
2018-04-14T05:54:09.743Z,63.77
2018-04-14T05:56:36.271Z,64.10
2018-04-14T05:59:04.047Z,63.07
2018-04-14T06:01:30.579Z,62.53
2018-04-14T06:03:58.038Z,60.13
2018-04-14T06:06:24.879Z,66.00
2018-04-14T06:08:51.490Z,70.77
2018-04-14T06:11:18.872Z,63.63
2018-04-14T06:13:45.713Z,59.33
2018-04-14T06:16:12.557Z,66.13
2018-04-14T06:18:39.193Z,60.30
2018-04-14T06:21:05.929Z,63.13
2018-04-14T06:23:33.284Z,57.83
2018-04-14T06:26:00.336Z,58.43
2018-04-14T06:28:26.930Z,61.10
2018-04-14T06:30:54.528Z,54.87
2018-04-14T06:33:21.373Z,59.73
2018-04-14T06:35:48.216Z,59.13
2018-04-14T06:38:14.952Z,58.37
2018-04-14T06:40:41.798Z,60.77
2018-04-14T06:43:08.324Z,61.93
2018-04-14T06:45:35.893Z,54.77
2018-04-14T06:48:02.734Z,61.57
2018-04-14T06:50:29.369Z,53.70
2018-04-14T06:52:56.012Z,56.17
2018-04-14T06:55:22.775Z,60.13
2018-04-14T06:57:49.291Z,59.00
2018-04-14T07:00:15.922Z,57.17
2018-04-14T07:02:42.764Z,62.93
2018-04-14T07:05:09.312Z,55.20
2018-04-14T07:07:36.141Z,55.30
2018-04-14T07:10:02.881Z,56.13
2018-04-14T07:12:29.450Z,53.10
2018-04-14T07:14:55.977Z,57.47
2018-04-14T07:17:22.688Z,55.20
2018-04-14T07:19:49.328Z,52.40
2018-04-14T07:22:17.195Z,55.23
2018-04-14T07:24:43.828Z,53.37
2018-04-14T07:27:11.187Z,54.70
2018-04-14T07:29:38.644Z,52.17
2018-04-14T07:32:05.995Z,50.27
2018-04-14T07:34:33.452Z,46.40
2018-04-14T07:37:00.092Z,46.07
2018-04-14T07:39:26.831Z,46.00
2018-04-14T07:41:53.680Z,46.83
2018-04-14T07:44:20.313Z,44.50
2018-04-14T07:46:46.944Z,45.83
2018-04-14T07:49:14.504Z,47.63
2018-04-14T07:51:41.970Z,40.70
2018-04-14T07:54:08.597Z,44.77
2018-04-14T07:56:36.264Z,46.67
2018-04-14T07:59:02.999Z,43.47
2018-04-14T08:01:30.282Z,40.90
2018-04-14T08:03:56.991Z,40.83
2018-04-14T08:06:24.355Z,42.23
2018-04-14T08:08:51.090Z,44.20
2018-04-14T08:11:17.622Z,44.90
2018-04-14T08:13:45.113Z,41.63
2018-04-14T08:16:11.823Z,44.07
2018-04-14T08:18:38.460Z,43.67
2018-04-14T08:21:05.198Z,45.90
2018-04-14T08:23:31.837Z,46.83
2018-04-14T08:25:58.577Z,42.50
2018-04-14T08:28:25.928Z,44.93
2018-04-14T08:30:53.486Z,44.30
2018-04-14T08:33:20.843Z,46.77
2018-04-14T08:35:47.356Z,47.00
2018-04-14T08:38:14.626Z,45.00
2018-04-14T08:40:42.189Z,48.17
2018-04-14T08:43:09.750Z,44.27
2018-04-14T08:45:36.386Z,44.77
2018-04-14T08:48:02.934Z,44.23
2018-04-14T08:50:29.656Z,44.67
2018-04-14T08:52:56.399Z,43.93
2018-04-14T08:55:23.033Z,45.57
2018-04-14T08:57:50.303Z,42.27
2018-04-14T09:00:17.541Z,40.30
2018-04-14T09:02:44.382Z,42.63
2018-04-14T09:05:11.021Z,43.43
2018-04-14T09:07:37.655Z,36.77
2018-04-14T09:10:05.013Z,36.37
2018-04-14T09:12:31.649Z,40.27
2018-04-14T09:14:58.995Z,43.47
2018-04-14T09:17:26.473Z,41.67
2018-04-14T09:19:54.122Z,39.93
2018-04-14T09:22:20.863Z,45.17
2018-04-14T09:24:47.803Z,41.30
2018-04-14T09:27:14.547Z,42.90
2018-04-14T09:29:41.294Z,43.00
2018-04-14T09:32:08.124Z,43.90
2018-04-14T09:34:35.279Z,44.07
2018-04-14T09:37:02.131Z,39.60
2018-04-14T09:39:29.066Z,38.43
2018-04-14T09:41:55.839Z,41.57
2018-04-14T09:44:22.650Z,35.40
2018-04-14T09:46:49.381Z,39.57
2018-04-14T09:49:16.454Z,34.53
2018-04-14T09:51:43.167Z,42.97
2018-04-14T09:54:09.917Z,36.23
2018-04-14T09:56:36.863Z,37.50
2018-04-14T09:59:03.602Z,35.00
2018-04-14T10:01:30.446Z,36.93
2018-04-14T10:03:58.104Z,33.37
2018-04-14T10:06:25.049Z,36.17
2018-04-14T10:08:51.894Z,33.77
2018-04-14T10:11:18.735Z,35.47
2018-04-14T10:13:45.576Z,38.23
2018-04-14T10:16:12.243Z,34.37
2018-04-14T10:18:38.922Z,37.43
2018-04-14T10:21:05.694Z,33.03
2018-04-14T10:23:32.393Z,37.77
2018-04-14T10:25:59.240Z,36.13
2018-04-14T10:28:26.731Z,37.03
2018-04-14T10:30:53.576Z,35.80
2018-04-14T10:33:20.519Z,37.30
2018-04-14T10:35:47.221Z,37.23
2018-04-14T10:38:14.711Z,31.93
2018-04-14T10:40:41.659Z,35.10
2018-04-14T10:43:08.401Z,32.83
2018-04-14T10:45:35.097Z,36.03
2018-04-14T10:48:02.495Z,32.03
2018-04-14T10:50:29.229Z,32.97
2018-04-14T10:52:55.975Z,36.40
2018-04-14T10:55:22.816Z,32.27
2018-04-14T10:57:49.762Z,31.63
2018-04-14T11:00:16.603Z,35.37
2018-04-14T11:02:43.448Z,33.97
2018-04-14T11:05:10.348Z,32.87
2018-04-14T11:07:37.435Z,32.00
2018-04-14T11:10:04.175Z,33.00
2018-04-14T11:12:31.124Z,37.07
2018-04-14T11:14:58.071Z,33.27
2018-04-14T11:17:25.009Z,34.90
2018-04-14T11:19:55.707Z,33.63
2018-04-14T11:22:22.584Z,34.33
2018-04-14T11:24:50.148Z,31.90
2018-04-14T11:27:16.989Z,32.97
2018-04-14T11:29:44.774Z,30.63
2018-04-14T11:32:11.488Z,31.53
2018-04-14T11:34:38.537Z,34.23
2018-04-14T11:37:05.275Z,35.07
2018-04-14T11:39:33.164Z,29.63
2018-04-14T11:42:00.021Z,35.70
2018-04-14T11:44:26.928Z,31.43
2018-04-14T11:46:53.879Z,32.03
2018-04-14T11:49:21.029Z,35.27
2018-04-14T11:51:47.869Z,34.10
2018-04-14T11:54:14.815Z,32.20
2018-04-14T11:56:41.553Z,32.87
2018-04-14T11:59:08.290Z,33.10
2018-04-14T12:01:35.136Z,34.37
2018-04-14T12:04:01.876Z,33.90
2018-04-14T12:06:29.041Z,35.07
2018-04-14T12:08:55.717Z,31.80
2018-04-14T12:11:22.402Z,32.50
2018-04-14T12:13:49.347Z,34.60
2018-04-14T12:16:16.190Z,34.53
2018-04-14T12:18:42.968Z,33.30
2018-04-14T12:21:09.709Z,36.80
2018-04-14T12:23:37.173Z,31.63
2018-04-14T12:26:03.958Z,37.13
2018-04-14T12:28:30.744Z,32.87
2018-04-14T12:30:57.547Z,36.17
2018-04-14T12:33:24.250Z,33.30
2018-04-14T12:35:51.849Z,34.70
2018-04-14T12:38:18.897Z,33.00
2018-04-14T12:40:45.615Z,32.97
2018-04-14T12:43:12.513Z,36.53
2018-04-14T12:45:39.317Z,36.87
2018-04-14T12:48:06.159Z,33.60
2018-04-14T12:50:32.880Z,42.50
2018-04-14T12:53:00.360Z,37.43
2018-04-14T12:55:27.197Z,40.20
2018-04-14T12:57:53.992Z,42.20
2018-04-14T13:00:20.678Z,40.60
2018-04-14T13:02:47.853Z,39.30
2018-04-14T13:05:14.674Z,38.67
2018-04-14T13:07:41.413Z,41.20
2018-04-14T13:10:08.259Z,42.93
2018-04-14T13:12:35.200Z,39.80
2018-04-14T13:15:01.937Z,37.23
2018-04-14T13:17:28.779Z,36.37
2018-04-14T13:19:55.727Z,38.70
2018-04-14T13:22:22.382Z,38.77
2018-04-14T13:24:49.179Z,39.13
2018-04-14T13:27:15.942Z,37.60
2018-04-14T13:29:42.994Z,36.83
2018-04-14T13:32:09.734Z,40.57
2018-04-14T13:34:36.395Z,42.27
2018-04-14T13:37:03.210Z,42.70
2018-04-14T13:39:30.060Z,45.90
2018-04-14T13:41:56.898Z,39.10
2018-04-14T13:44:23.741Z,41.60
2018-04-14T13:46:50.578Z,41.63
2018-04-14T13:49:17.424Z,41.47
2018-04-14T13:51:44.373Z,40.17
2018-04-14T13:54:11.114Z,42.90
2018-04-14T13:56:37.796Z,46.23
2018-04-14T13:59:04.585Z,37.57
2018-04-14T14:01:31.431Z,40.10
2018-04-14T14:03:58.143Z,42.63
2018-04-14T14:06:25.013Z,41.97
2018-04-14T14:08:51.857Z,42.57
2018-04-14T14:11:18.596Z,42.03
2018-04-14T14:13:45.435Z,46.43
2018-04-14T14:16:12.108Z,43.20
2018-04-14T14:18:38.914Z,45.73
2018-04-14T14:21:05.763Z,42.00
2018-04-14T14:23:32.705Z,42.77
2018-04-14T14:25:59.548Z,41.73
2018-04-14T14:28:26.495Z,41.67
2018-04-14T14:30:53.538Z,45.83
2018-04-14T14:33:20.399Z,41.50
2018-04-14T14:35:47.111Z,46.07
2018-04-14T14:38:13.959Z,43.50
2018-04-14T14:40:40.806Z,41.80
2018-04-14T14:43:07.453Z,41.70
2018-04-14T14:45:34.136Z,42.60
2018-04-14T14:48:00.920Z,43.90
2018-04-14T14:50:28.073Z,42.57
2018-04-14T14:52:54.915Z,42.20
2018-04-14T14:55:21.543Z,44.10
2018-04-14T14:57:48.294Z,45.73
2018-04-14T15:00:15.031Z,44.13
2018-04-14T15:02:41.926Z,46.07
2018-04-14T15:05:08.723Z,44.57
2018-04-14T15:07:35.560Z,46.13
2018-04-14T15:10:02.403Z,47.23
2018-04-14T15:12:29.650Z,54.90
2018-04-14T15:14:56.299Z,47.60
2018-04-14T15:17:23.136Z,46.70
2018-04-14T15:19:49.814Z,48.67
2018-04-14T15:22:16.716Z,43.23
2018-04-14T15:24:43.559Z,50.97
2018-04-14T15:27:10.501Z,44.73
2018-04-14T15:29:37.173Z,45.57
2018-04-14T15:32:03.981Z,44.97
2018-04-14T15:34:30.672Z,48.10
2018-04-14T15:36:57.460Z,44.57
2018-04-14T15:39:24.404Z,48.77
2018-04-14T15:41:51.148Z,52.70
2018-04-14T15:44:18.112Z,49.10
2018-04-14T15:46:45.035Z,44.83
2018-04-14T15:49:11.769Z,46.27
2018-04-14T15:51:38.617Z,46.13
2018-04-14T15:54:05.351Z,44.93
2018-04-14T15:56:32.194Z,43.77
2018-04-14T15:58:59.040Z,45.47
2018-04-14T16:01:25.776Z,51.27
2018-04-14T16:03:52.465Z,45.33
2018-04-14T16:06:19.256Z,47.17
2018-04-14T16:08:46.204Z,46.70
2018-04-14T16:11:13.167Z,43.60
2018-04-14T16:13:39.992Z,41.57
2018-04-14T16:16:06.729Z,51.23
2018-04-14T16:18:33.678Z,48.27
2018-04-14T16:21:00.669Z,44.83
2018-04-14T16:23:27.459Z,45.13
2018-04-14T16:25:54.263Z,45.90
2018-04-14T16:28:22.582Z,43.70
2018-04-14T16:30:49.323Z,43.83
2018-04-14T16:33:16.137Z,39.10
2018-04-14T16:35:43.727Z,40.73
2018-04-14T16:38:10.398Z,38.17
2018-04-14T16:40:37.203Z,40.40
2018-04-14T16:43:03.879Z,39.40
2018-04-14T16:45:30.681Z,43.97
2018-04-14T16:47:57.628Z,35.10
2018-04-14T16:50:24.845Z,37.10
2018-04-14T16:52:52.440Z,37.63
2018-04-14T16:55:19.118Z,40.57
2018-04-14T16:57:47.291Z,38.87
2018-04-14T17:00:14.422Z,43.00
2018-04-14T17:02:41.243Z,41.03
2018-04-14T17:05:07.979Z,43.13
2018-04-14T17:07:34.674Z,40.33
2018-04-14T17:10:01.462Z,40.33
2018-04-14T17:12:28.404Z,42.27
2018-04-14T17:14:55.071Z,38.00
2018-04-14T17:17:21.988Z,40.63
2018-04-14T17:19:48.729Z,36.87
2018-04-14T17:22:15.573Z,43.03
2018-04-14T17:24:42.926Z,47.07
2018-04-14T17:27:09.617Z,38.43
2018-04-14T17:29:36.406Z,39.30
2018-04-14T17:32:03.349Z,39.43
2018-04-14T17:34:30.030Z,37.87
2018-04-14T17:36:57.650Z,43.80
2018-04-14T17:39:24.385Z,39.17
2018-04-14T17:41:51.062Z,42.23
2018-04-14T17:44:17.875Z,40.20
2018-04-14T17:46:44.549Z,37.93
2018-04-14T17:49:12.271Z,35.97
2018-04-14T17:51:38.930Z,38.83
2018-04-14T17:54:05.597Z,34.93
2018-04-14T17:56:32.596Z,39.57
2018-04-14T17:58:59.539Z,38.30
2018-04-14T18:01:26.383Z,35.80
2018-04-14T18:03:53.225Z,36.00
2018-04-14T18:06:20.314Z,42.87
2018-04-14T18:08:47.066Z,38.67
2018-04-14T18:11:13.701Z,41.47
2018-04-14T18:13:41.411Z,36.33
2018-04-14T18:16:08.273Z,39.60
2018-04-14T18:18:35.091Z,38.33
2018-04-14T18:21:01.833Z,38.70
2018-04-14T18:23:28.653Z,38.53
2018-04-14T18:25:55.408Z,38.60
2018-04-14T18:28:22.362Z,39.13
2018-04-14T18:30:49.306Z,47.00
2018-04-14T18:33:16.148Z,42.20
2018-04-14T18:35:42.888Z,39.90
2018-04-14T18:38:09.594Z,39.77
2018-04-14T18:40:36.306Z,44.40
2018-04-14T18:43:03.063Z,47.73
2018-04-14T18:45:29.830Z,45.67
2018-04-14T18:47:56.682Z,43.70
2018-04-14T18:50:23.386Z,41.60
2018-04-14T18:52:50.820Z,39.93
2018-04-14T18:55:17.555Z,44.17
2018-04-14T18:57:44.201Z,42.10
2018-04-14T19:00:11.069Z,44.23
2018-04-14T19:02:38.490Z,47.20
2018-04-14T19:05:05.988Z,47.70
2018-04-14T19:07:32.746Z,43.00
2018-04-14T19:09:59.472Z,44.97
2018-04-14T19:12:26.233Z,40.47
2018-04-14T19:14:52.929Z,44.07
2018-04-14T19:17:20.430Z,44.10
2018-04-14T19:19:47.142Z,41.93
2018-04-14T19:22:14.595Z,48.07
2018-04-14T19:24:42.040Z,52.97
2018-04-14T19:27:08.942Z,45.80
2018-04-14T19:29:35.606Z,46.87
2018-04-14T19:32:02.414Z,45.37
2018-04-14T19:34:29.356Z,54.63
2018-04-14T19:36:56.006Z,43.57
2018-04-14T19:39:22.833Z,45.03
2018-04-14T19:41:49.520Z,43.27
2018-04-14T19:44:17.852Z,40.43
2018-04-14T19:46:44.798Z,42.03
2018-04-14T19:49:11.742Z,44.77
2018-04-14T19:51:38.586Z,46.97
2018-04-14T19:54:05.367Z,46.77
2018-04-14T19:56:32.277Z,45.20
2018-04-14T19:58:58.957Z,46.47
2018-04-14T20:01:25.851Z,45.80
2018-04-14T20:03:52.694Z,47.60
2018-04-14T20:06:19.405Z,47.93
2018-04-14T20:08:46.375Z,45.83
2018-04-14T20:11:13.222Z,46.30
2018-04-14T20:13:39.960Z,48.17
2018-04-14T20:16:06.798Z,46.40
2018-04-14T20:18:33.657Z,48.37
2018-04-14T20:21:00.589Z,49.13
2018-04-14T20:23:27.329Z,47.20
2018-04-14T20:25:54.173Z,50.27
2018-04-14T20:28:21.342Z,49.63
2018-04-14T20:30:49.085Z,47.47
2018-04-14T20:33:15.928Z,52.20
2018-04-14T20:35:42.766Z,50.80
2018-04-14T20:38:09.613Z,50.47
2018-04-14T20:40:36.451Z,48.27
2018-04-14T20:43:03.296Z,47.67
2018-04-14T20:45:30.035Z,47.30
2018-04-14T20:47:56.984Z,46.83
2018-04-14T20:50:23.673Z,46.97
2018-04-14T20:52:51.418Z,46.97
2018-04-14T20:55:18.220Z,44.80
2018-04-14T20:57:45.066Z,47.27
2018-04-14T21:00:11.911Z,55.00
2018-04-14T21:02:39.056Z,53.07
2018-04-14T21:05:05.797Z,47.73
2018-04-14T21:07:32.640Z,50.97
2018-04-14T21:09:59.585Z,48.07
2018-04-14T21:12:26.322Z,52.60
2018-04-14T21:14:53.577Z,48.87
2018-04-14T21:17:20.356Z,48.40
2018-04-14T21:19:48.593Z,44.53
2018-04-14T21:22:15.836Z,50.37
2018-04-14T21:24:42.495Z,51.00
2018-04-14T21:27:09.324Z,46.03
2018-04-14T21:29:36.264Z,52.93
2018-04-14T21:32:03.213Z,45.37
2018-04-14T21:34:30.057Z,52.17
2018-04-14T21:36:56.899Z,56.23
2018-04-14T21:39:23.535Z,51.40
2018-04-14T21:41:50.378Z,49.97
2018-04-14T21:44:17.058Z,57.60
2018-04-14T21:46:43.854Z,49.30
2018-04-14T21:49:10.498Z,54.00
2018-04-14T21:51:37.322Z,51.10
2018-04-14T21:54:04.693Z,47.03
2018-04-14T21:56:31.534Z,49.80
2018-04-14T21:58:58.183Z,58.27
2018-04-14T22:01:25.011Z,51.53
2018-04-14T22:03:51.857Z,51.57
2018-04-14T22:06:18.550Z,50.60
2018-04-14T22:08:46.053Z,52.97
2018-04-14T22:11:12.890Z,46.93
2018-04-14T22:13:39.738Z,49.47
2018-04-14T22:16:06.464Z,52.03
2018-04-14T22:18:33.177Z,52.67
2018-04-14T22:21:00.778Z,47.07
2018-04-14T22:23:27.615Z,48.73
2018-04-14T22:25:54.568Z,51.73
2018-04-14T22:28:21.421Z,56.53
2018-04-14T22:30:48.454Z,52.47
2018-04-14T22:33:15.399Z,49.00
2018-04-14T22:35:42.232Z,51.50
2018-04-14T22:38:08.980Z,50.27
2018-04-14T22:40:35.812Z,56.13
2018-04-14T22:43:02.665Z,53.73
2018-04-14T22:45:29.482Z,52.20
2018-04-14T22:47:56.241Z,57.17
2018-04-14T22:50:23.091Z,59.23
2018-04-14T22:52:50.234Z,47.87
2018-04-14T22:55:16.895Z,59.38
2018-04-14T22:57:43.555Z,47.17
2018-04-14T23:00:10.458Z,48.47
2018-04-14T23:02:37.096Z,54.80
2018-04-14T23:05:04.458Z,49.80
2018-04-14T23:07:31.294Z,56.30
2018-04-14T23:09:58.033Z,51.17
2018-04-14T23:12:24.875Z,52.97
2018-04-14T23:14:51.525Z,56.93
2018-04-14T23:17:18.351Z,55.60
2018-04-14T23:19:45.088Z,48.87
2018-04-14T23:22:15.110Z,54.88
2018-04-14T23:24:41.952Z,49.73
2018-04-14T23:27:08.794Z,49.90
2018-04-14T23:29:35.544Z,59.28
2018-04-14T23:32:02.273Z,46.45
2018-04-14T23:34:28.969Z,59.50
2018-04-14T23:36:55.711Z,54.65
2018-04-14T23:39:22.595Z,62.67
2018-04-14T23:41:49.307Z,65.25
2018-04-14T23:44:16.176Z,49.65
2018-04-14T23:46:43.120Z,46.08
2018-04-14T23:49:09.768Z,58.77
2018-04-14T23:51:36.907Z,58.97
2018-04-14T23:54:03.648Z,60.88
2018-04-14T23:56:30.487Z,69.95
2018-04-14T23:58:57.259Z,61.22
